Time;durP1;ratioP1;P1;durP2;ratioP2;P2;SDS_P1;SDS_P2;PMS_P1;PMS_P2;Temp;Humidity;BMP_temperature;BMP_pressure;BME280_temperature;BME280_humidity;BME280_pressure;Samples;Min_cycle;Max_cycle;Signal;HPM_P1;HPM_P2
2021/08/23 00:01:47;;;;;;;10.05;6.80;;;;;;;14.68;66.73;100647.98;1722982;83;20955;-73
2021/08/23 00:04:14;;;;;;;7.92;5.83;;;;;;;14.65;66.86;100650.41;1717874;82;21001;-73
2021/08/23 00:06:41;;;;;;;8.00;5.70;;;;;;;14.66;66.94;100656.08;1731605;82;21075;-73
2021/08/23 00:09:09;;;;;;;9.40;5.85;;;;;;;14.65;67.02;100656.22;1734130;82;20946;-73
2021/08/23 00:11:35;;;;;;;9.10;5.40;;;;;;;14.63;67.09;100658.19;1732558;82;21924;-73
2021/08/23 00:14:02;;;;;;;7.45;5.55;;;;;;;14.59;67.19;100657.64;1732896;82;20998;-73
2021/08/23 00:16:29;;;;;;;8.35;6.40;;;;;;;14.57;67.25;100655.59;1732874;82;20957;-73
2021/08/23 00:18:55;;;;;;;8.58;6.08;;;;;;;14.56;67.39;100660.56;1733110;82;20958;-73
2021/08/23 00:21:30;;;;;;;9.73;6.35;;;;;;;14.54;67.49;100660.70;1732811;82;21009;-72
2021/08/23 00:24:05;;;;;;;7.92;6.00;;;;;;;14.52;67.58;100661.34;1730838;82;21005;-73
2021/08/23 00:26:23;;;;;;;8.95;5.95;;;;;;;14.50;67.72;100657.16;1731039;82;21011;-73
2021/08/23 00:28:52;;;;;;;8.10;5.70;;;;;;;14.50;67.79;100661.98;1732816;82;21010;-73
2021/08/23 00:31:18;;;;;;;10.75;6.12;;;;;;;14.49;67.82;100662.96;1732816;82;20961;-73
2021/08/23 00:33:45;;;;;;;10.20;5.83;;;;;;;14.47;67.79;100663.56;1732637;82;21001;-72
2021/08/23 00:36:11;;;;;;;8.30;5.55;;;;;;;14.47;67.77;100669.38;1732940;82;21780;-73
2021/08/23 00:38:39;;;;;;;7.95;5.70;;;;;;;14.47;67.71;100667.55;1732793;82;20955;-73
2021/08/23 00:41:05;;;;;;;8.33;5.85;;;;;;;14.46;67.72;100666.37;1733473;82;20981;-73
2021/08/23 00:43:32;;;;;;;7.97;5.55;;;;;;;14.46;67.71;100667.70;1732785;82;20981;-72
2021/08/23 00:46:00;;;;;;;7.80;5.58;;;;;;;14.46;67.72;100673.85;1733108;82;21493;-72
2021/08/23 00:48:28;;;;;;;7.83;5.05;;;;;;;14.44;67.75;100669.62;1732904;82;20979;-72
2021/08/23 00:50:55;;;;;;;7.05;5.05;;;;;;;14.41;67.70;100666.77;1733679;82;21076;-73
2021/08/23 00:53:22;;;;;;;7.33;5.05;;;;;;;14.42;67.68;100675.58;1718342;82;21044;-73
2021/08/23 00:55:50;;;;;;;7.08;4.75;;;;;;;14.39;67.71;100675.38;1739062;82;20961;-73
2021/08/23 00:58:20;;;;;;;6.70;4.92;;;;;;;14.38;67.75;100676.82;1739230;82;20980;-72
2021/08/23 01:00:52;;;;;;;7.42;5.17;;;;;;;14.38;67.87;100675.48;1733247;82;22060;-73
2021/08/23 01:03:20;;;;;;;6.70;5.10;;;;;;;14.38;67.91;100676.82;1732954;82;20866;-72
2021/08/23 01:05:47;;;;;;;7.28;5.03;;;;;;;14.35;67.93;100668.64;1732689;82;20966;-73
2021/08/23 01:08:30;;;;;;;8.20;4.97;;;;;;;14.30;67.89;100667.75;1732935;82;20962;-72
2021/08/23 01:10:54;;;;;;;7.90;5.20;;;;;;;14.27;67.87;100669.33;1733011;82;20998;-73
2021/08/23 01:13:22;;;;;;;8.33;5.10;;;;;;;14.26;67.88;100674.30;1732928;82;21843;-73
2021/08/23 01:15:48;;;;;;;9.00;5.00;;;;;;;14.24;67.92;100673.60;1732498;82;21405;-73
2021/08/23 01:18:15;;;;;;;7.70;5.45;;;;;;;14.23;67.94;100671.09;1732964;82;21560;-73
2021/08/23 01:20:42;;;;;;;7.58;5.53;;;;;;;14.23;67.91;100669.76;1732964;82;21536;-73
2021/08/23 01:23:10;;;;;;;9.98;6.50;;;;;;;14.20;67.86;100670.88;1733229;82;21376;-72
2021/08/23 01:25:36;;;;;;;10.78;6.40;;;;;;;14.19;67.87;100671.02;1733012;82;22447;-73
2021/08/23 01:28:27;;;;;;;11.73;6.08;;;;;;;14.17;67.88;100667.16;1732931;82;21026;-73
2021/08/23 01:31:05;;;;;;;12.80;7.50;;;;;;;14.18;67.86;100669.31;1732849;82;21030;-73
2021/08/23 01:33:31;;;;;;;10.82;7.42;;;;;;;14.15;67.94;100665.13;1732451;82;21050;-73
2021/08/23 01:36:01;;;;;;;13.40;7.65;;;;;;;14.14;68.00;100660.80;1732887;82;20946;-73
2021/08/23 01:38:29;;;;;;;15.98;8.15;;;;;;;14.12;67.96;100657.94;1733243;82;21769;-73
2021/08/23 01:41:04;;;;;;;20.95;10.45;;;;;;;14.11;67.94;100660.24;1732786;82;20978;-73
2021/08/23 01:43:32;;;;;;;21.23;11.63;;;;;;;14.09;67.98;100662.17;1733200;82;20974;-73
2021/08/23 01:45:59;;;;;;;19.10;11.35;;;;;;;14.06;68.10;100661.97;1732802;82;21458;-72
2021/08/23 01:48:25;;;;;;;17.52;11.73;;;;;;;14.04;68.14;100667.42;1733034;82;21378;-73
2021/08/23 01:50:52;;;;;;;20.92;11.10;;;;;;;14.02;68.20;100664.06;1731061;82;21835;-73
2021/08/23 01:53:19;;;;;;;18.32;10.43;;;;;;;14.02;68.20;100667.21;1729669;82;20952;-73
2021/08/23 01:55:46;;;;;;;17.80;10.10;;;;;;;14.00;68.20;100663.86;1729104;82;20955;-73
2021/08/23 01:58:14;;;;;;;18.73;10.00;;;;;;;14.00;68.16;100658.55;1729731;82;21013;-73
2021/08/23 02:00:41;;;;;;;14.65;9.85;;;;;;;13.97;68.08;100653.00;1729164;82;21551;-73
2021/08/23 02:03:07;;;;;;;15.38;10.00;;;;;;;13.96;68.06;100657.97;1729401;82;22445;-72
2021/08/23 02:05:34;;;;;;;17.52;10.30;;;;;;;13.94;68.02;100657.76;1729635;82;21482;-73
2021/08/23 02:08:00;;;;;;;16.35;10.23;;;;;;;13.93;68.00;100660.91;1729564;82;21565;-73
2021/08/23 02:10:29;;;;;;;14.10;9.60;;;;;;;13.91;68.00;100656.22;1729492;82;21506;-73
2021/08/23 02:12:55;;;;;;;14.00;9.88;;;;;;;13.91;67.98;100652.73;1729616;82;20967;-73
2021/08/23 02:15:22;;;;;;;18.00;10.65;;;;;;;13.92;67.94;100651.75;1729442;82;21885;-72
2021/08/23 02:17:48;;;;;;;16.17;10.35;;;;;;;13.94;67.83;100657.76;1729450;82;20975;-73
2021/08/23 02:20:14;;;;;;;17.82;10.65;;;;;;;13.94;67.79;100652.45;1729603;82;20988;-72
2021/08/23 02:22:42;;;;;;;20.12;10.70;;;;;;;13.94;67.75;100650.63;1729227;82;21022;-73
2021/08/23 02:25:10;;;;;;;14.07;10.20;;;;;;;13.94;67.63;100649.79;1735374;82;20987;-73
2021/08/23 02:27:37;;;;;;;18.95;10.90;;;;;;;13.93;67.58;100653.42;1739655;82;21826;-73
2021/08/23 02:30:05;;;;;;;17.02;9.88;;;;;;;13.90;67.50;100650.56;1739118;82;21046;-73
2021/08/23 02:32:33;;;;;;;14.47;9.20;;;;;;;13.89;67.50;100652.00;1739281;82;21092;-73
2021/08/23 02:35:00;;;;;;;12.50;8.45;;;;;;;13.84;67.44;100657.73;1739487;82;20959;-73
2021/08/23 02:37:27;;;;;;;14.25;9.10;;;;;;;13.83;67.42;100656.05;1739248;82;20986;-73
2021/08/23 02:39:53;;;;;;;11.88;8.33;;;;;;;13.83;67.45;100656.55;1739244;82;21817;-72
2021/08/23 02:42:20;;;;;;;13.22;9.33;;;;;;;13.82;67.46;100658.86;1732184;82;20931;-72
2021/08/23 02:44:47;;;;;;;12.70;8.85;;;;;;;13.77;67.52;100658.41;1729286;82;20990;-72
2021/08/23 02:47:14;;;;;;;13.53;8.60;;;;;;;13.73;67.63;100664.48;1729343;82;20996;-72
2021/08/23 02:49:41;;;;;;;13.45;9.10;;;;;;;13.69;67.71;100663.05;1729949;82;20987;-73
2021/08/23 02:52:08;;;;;;;12.47;8.88;;;;;;;13.65;67.78;100669.12;1739070;82;21870;-73
2021/08/23 02:54:36;;;;;;;13.20;8.48;;;;;;;13.62;67.77;100668.08;1738834;82;20933;-73
2021/08/23 02:57:03;;;;;;;15.20;8.53;;;;;;;13.59;67.81;100670.98;1739166;82;21001;-73
2021/08/23 02:59:29;;;;;;;14.70;8.10;;;;;;;13.59;67.81;100671.47;1730883;82;20975;-73
2021/08/23 03:01:56;;;;;;;10.65;7.67;;;;;;;13.57;67.91;100673.42;1695839;82;21418;-72
2021/08/23 03:04:23;;;;;;;13.30;7.80;;;;;;;13.55;68.04;100672.73;1666531;83;21785;-73
2021/08/23 03:06:50;;;;;;;11.70;7.62;;;;;;;13.52;68.04;100675.16;1673687;85;21030;-73
2021/08/23 03:09:17;;;;;;;10.90;7.95;;;;;;;13.49;68.11;100676.73;1665026;85;21340;-73
2021/08/23 03:11:43;;;;;;;13.93;8.20;;;;;;;13.45;68.21;100674.01;1678129;85;21422;-73
2021/08/23 03:14:10;;;;;;;11.73;8.33;;;;;;;13.43;68.30;100674.15;1677933;84;21420;-73
2021/08/23 03:16:36;;;;;;;14.73;8.58;;;;;;;13.42;68.39;100676.45;1698727;84;22660;-73
2021/08/23 03:19:03;;;;;;;13.03;8.20;;;;;;;13.41;68.49;100675.23;1703085;82;21474;-73
2021/08/23 03:21:30;;;;;;;10.65;8.05;;;;;;;13.39;68.60;100674.53;1702364;83;21378;-73
2021/08/23 03:23:56;;;;;;;11.80;7.85;;;;;;;13.39;68.77;100679.84;1703104;82;21378;-73
2021/08/23 03:26:22;;;;;;;13.70;7.83;;;;;;;13.39;68.84;100679.34;1702982;84;21461;-73
2021/08/23 03:28:49;;;;;;;10.58;7.95;;;;;;;13.41;68.87;100690.70;1703213;83;22505;-73
2021/08/23 03:31:16;;;;;;;13.20;8.48;;;;;;;13.43;68.95;100690.07;1702320;83;20951;-73
2021/08/23 03:33:42;;;;;;;10.18;7.62;;;;;;;13.45;69.04;100683.30;1702080;83;21046;-73
2021/08/23 03:36:09;;;;;;;13.55;7.78;;;;;;;13.48;69.09;100687.48;1702571;84;20966;-73
2021/08/23 03:38:37;;;;;;;13.93;8.25;;;;;;;13.49;69.20;100687.84;1702995;84;20955;-73
2021/08/23 03:41:03;;;;;;;11.48;8.10;;;;;;;13.52;69.32;100688.92;1702616;83;21525;-73
2021/08/23 03:43:31;;;;;;;11.08;7.80;;;;;;;13.55;69.39;100688.65;1702109;84;21518;-73
2021/08/23 03:45:58;;;;;;;12.45;8.40;;;;;;;13.58;69.39;100685.23;1702584;83;21395;-73
2021/08/23 03:48:24;;;;;;;14.13;8.95;;;;;;;13.61;69.38;100678.84;1702780;84;21078;-73
2021/08/23 03:50:51;;;;;;;16.20;9.08;;;;;;;13.67;69.36;100684.43;1688238;83;21111;-73
2021/08/23 03:53:17;;;;;;;14.35;9.33;;;;;;;13.71;69.25;100691.66;1678072;84;21838;-73
2021/08/23 03:55:44;;;;;;;14.63;9.60;;;;;;;13.74;69.11;100680.27;1677541;83;21072;-73
2021/08/23 03:58:11;;;;;;;16.85;10.13;;;;;;;13.77;69.05;100683.63;1677767;85;21067;-72
2021/08/23 04:00:38;;;;;;;16.27;10.03;;;;;;;13.80;69.03;100683.34;1688748;82;21024;-73
2021/08/23 04:03:05;;;;;;;16.10;10.03;;;;;;;13.81;68.99;100686.38;1736570;82;20937;-73
2021/08/23 04:05:31;;;;;;;17.02;10.82;;;;;;;13.82;68.95;100683.59;1737186;82;21904;-73
2021/08/23 04:07:58;;;;;;;16.87;10.88;;;;;;;13.85;68.94;100683.30;1731173;82;20953;-73
2021/08/23 04:10:25;;;;;;;20.37;11.57;;;;;;;13.87;68.95;100684.00;1732070;82;20981;-73
2021/08/23 04:12:51;;;;;;;18.37;11.05;;;;;;;13.92;69.02;100682.28;1732142;82;21020;-72
2021/08/23 04:15:18;;;;;;;19.75;11.68;;;;;;;13.98;69.00;100689.69;1731920;82;21021;-73
2021/08/23 04:17:44;;;;;;;18.57;11.53;;;;;;;14.02;68.93;100689.79;1731894;82;21817;-73
2021/08/23 04:20:12;;;;;;;18.30;11.80;;;;;;;14.07;68.94;100696.84;1731841;82;21028;-73
2021/08/23 04:22:39;;;;;;;19.52;12.28;;;;;;;14.11;68.92;100689.46;1730969;82;20957;-73
2021/08/23 04:25:08;;;;;;;20.05;11.45;;;;;;;14.16;68.93;100689.38;1702148;84;21009;-73
2021/08/23 04:27:35;;;;;;;19.27;11.78;;;;;;;14.23;68.93;100689.69;1702944;84;21069;-73
2021/08/23 04:30:01;;;;;;;16.02;10.72;;;;;;;14.29;68.93;100687.33;1702860;84;21809;-73
2021/08/23 04:32:29;;;;;;;16.93;11.00;;;;;;;14.36;68.98;100688.92;1702650;83;20976;-73
2021/08/23 04:34:56;;;;;;;18.00;11.33;;;;;;;14.44;68.99;100685.58;1702689;83;20966;-73
2021/08/23 04:37:22;;;;;;;16.50;11.05;;;;;;;14.51;68.91;100687.58;1702907;83;20988;-73
2021/08/23 04:39:49;;;;;;;14.65;10.45;;;;;;;14.57;68.85;100687.03;1705113;82;20997;-73
2021/08/23 04:42:16;;;;;;;17.05;10.88;;;;;;;14.66;68.86;100687.98;1732064;82;21823;-73
2021/08/23 04:44:43;;;;;;;15.10;10.30;;;;;;;14.74;68.77;100687.28;1683092;84;21037;-73
2021/08/23 04:47:11;;;;;;;16.32;10.40;;;;;;;14.81;68.42;100681.27;1732311;82;20996;-73
2021/08/23 04:49:37;;;;;;;17.00;10.72;;;;;;;14.88;68.27;100682.39;1682955;84;21462;-73
2021/08/23 04:52:04;;;;;;;16.30;9.95;;;;;;;14.99;68.19;100679.22;1731969;82;20993;-73
2021/08/23 04:54:31;;;;;;;15.13;9.45;;;;;;;15.07;68.04;100680.19;1731977;81;22195;-73
2021/08/23 04:56:57;;;;;;;13.98;9.10;;;;;;;15.16;67.71;100677.16;1731083;82;21026;-73
2021/08/23 04:59:24;;;;;;;19.05;9.28;;;;;;;15.24;67.32;100681.73;1731966;82;20989;-73
2021/08/23 05:01:50;;;;;;;15.20;9.10;;;;;;;15.31;66.83;100681.52;1730953;82;21423;-73
2021/08/23 05:04:17;;;;;;;14.50;8.93;;;;;;;15.39;66.58;100682.97;1729675;82;21426;-73
2021/08/23 05:06:43;;;;;;;12.03;7.83;;;;;;;15.48;66.46;100675.44;1729647;83;22592;-72
2021/08/23 05:09:10;;;;;;;11.15;8.13;;;;;;;15.61;66.22;100673.30;1729474;83;20940;-72
2021/08/23 05:11:37;;;;;;;13.10;7.90;;;;;;;15.74;65.94;100676.48;1729399;83;20987;-73
2021/08/23 05:14:04;;;;;;;10.28;7.00;;;;;;;15.87;65.69;100676.12;1728316;82;21058;-73
2021/08/23 05:16:30;;;;;;;11.28;7.45;;;;;;;16.00;65.24;100677.09;1729755;82;20943;-72
2021/08/23 05:18:57;;;;;;;10.60;7.20;;;;;;;16.13;64.87;100677.59;1729550;83;21837;-73
2021/08/23 05:21:23;;;;;;;12.73;7.42;;;;;;;16.26;64.50;100674.06;1729449;83;21149;-72
2021/08/23 05:23:49;;;;;;;11.18;7.17;;;;;;;16.42;64.26;100671.22;1729386;83;20947;-73
2021/08/23 05:26:16;;;;;;;11.90;7.80;;;;;;;16.55;64.03;100669.00;1729498;83;21023;-72
2021/08/23 05:28:42;;;;;;;12.05;7.10;;;;;;;16.70;63.67;100672.01;1729443;83;21051;-73
2021/08/23 05:31:09;;;;;;;12.78;7.40;;;;;;;16.84;63.47;100676.28;1728332;82;21821;-72
2021/08/23 05:33:35;;;;;;;12.35;6.58;;;;;;;16.98;63.23;100672.20;1729545;83;20983;-72
2021/08/23 05:36:02;;;;;;;10.60;6.45;;;;;;;17.09;62.91;100671.97;1729339;83;21078;-72
2021/08/23 05:38:29;;;;;;;13.48;6.90;;;;;;;17.23;62.16;100669.70;1729473;83;20952;-73
2021/08/23 05:40:56;;;;;;;10.65;6.67;;;;;;;17.37;61.80;100673.11;1729453;83;21470;-72
2021/08/23 05:43:23;;;;;;;12.47;6.08;;;;;;;17.51;61.50;100670.37;1729506;83;21830;-72
2021/08/23 05:45:50;;;;;;;9.83;5.47;;;;;;;17.67;61.10;100666.45;1729426;83;21005;-72
2021/08/23 05:48:16;;;;;;;13.83;6.25;;;;;;;17.81;60.95;100661.01;1721572;82;20959;-72
2021/08/23 05:50:43;;;;;;;12.25;5.87;;;;;;;17.95;60.78;100663.05;1699031;83;21533;-72
2021/08/23 05:53:09;;;;;;;8.18;5.33;;;;;;;18.09;60.38;100664.27;1699113;83;21455;-73
2021/08/23 05:55:37;;;;;;;12.03;5.55;;;;;;;18.24;59.95;100667.49;1699300;82;23039;-72
2021/08/23 05:58:03;;;;;;;11.35;5.83;;;;;;;18.40;59.62;100660.48;1698991;84;20992;-72
2021/08/23 06:00:30;;;;;;;9.90;5.28;;;;;;;18.54;59.60;100660.67;1698915;84;20947;-72
2021/08/23 06:02:56;;;;;;;6.72;5.05;;;;;;;18.69;59.61;100659.52;1733674;82;21418;-72
2021/08/23 06:05:23;;;;;;;9.05;5.37;;;;;;;18.86;59.68;100658.52;1731910;82;21437;-72
2021/08/23 06:07:52;;;;;;;10.25;5.47;;;;;;;19.05;59.30;100661.34;1731892;82;21033;-73
2021/08/23 06:10:20;;;;;;;12.25;4.95;;;;;;;19.22;58.78;100659.48;1732346;82;20994;-72
2021/08/23 06:12:47;;;;;;;12.00;4.75;;;;;;;19.37;57.71;100658.25;1732002;82;20945;-72
2021/08/23 06:15:13;;;;;;;9.73;4.60;;;;;;;19.51;57.00;100657.55;1732104;82;20985;-72
2021/08/23 06:17:39;;;;;;;6.22;4.10;;;;;;;19.64;56.33;100655.69;1732007;82;21001;-72
2021/08/23 06:20:08;;;;;;;7.67;4.67;;;;;;;19.81;55.77;100653.78;1732178;82;21818;-73
2021/08/23 06:22:37;;;;;;;6.03;3.85;;;;;;;19.95;55.77;100649.83;1731726;82;20994;-73
2021/08/23 06:25:06;;;;;;;6.17;3.77;;;;;;;20.09;54.99;100653.63;1732162;82;20987;-73
2021/08/23 06:27:32;;;;;;;8.85;3.20;;;;;;;20.24;54.18;100653.17;1731984;82;21510;-73
2021/08/23 06:30:00;;;;;;;7.37;3.85;;;;;;;20.39;53.40;100654.59;1732480;82;20964;-72
2021/08/23 06:32:27;;;;;;;5.45;3.55;;;;;;;20.52;52.59;100654.86;1731969;82;22240;-72
2021/08/23 06:34:53;;;;;;;6.20;3.70;;;;;;;20.65;52.20;100652.06;1731879;82;21011;-73
2021/08/23 06:37:21;;;;;;;7.65;3.40;;;;;;;20.78;52.09;100657.17;1731961;82;20999;-72
2021/08/23 06:39:48;;;;;;;7.17;3.90;;;;;;;20.90;51.99;100654.88;1731905;82;20972;-73
2021/08/23 06:42:14;;;;;;;5.35;3.72;;;;;;;21.03;51.50;100657.76;1732081;82;21019;-73
2021/08/23 06:44:41;;;;;;;5.80;4.08;;;;;;;21.17;50.59;100663.35;1732256;82;21802;-73
2021/08/23 06:47:08;;;;;;;6.92;4.10;;;;;;;21.28;50.48;100658.89;1732013;82;20940;-72
2021/08/23 06:49:34;;;;;;;6.20;3.87;;;;;;;21.42;50.26;100645.95;1737918;82;21009;-73
2021/08/23 06:52:00;;;;;;;7.90;3.62;;;;;;;21.55;49.82;100644.81;1739038;82;20949;-73
2021/08/23 06:54:27;;;;;;;5.25;3.02;;;;;;;21.69;49.63;100647.98;1739268;82;20937;-73
2021/08/23 06:56:53;;;;;;;7.10;3.50;;;;;;;21.83;48.99;100646.82;1735353;82;21783;-73
2021/08/23 06:59:20;;;;;;;7.05;3.60;;;;;;;21.94;48.08;100636.92;1732449;82;20942;-72
2021/08/23 07:01:46;;;;;;;5.83;2.92;;;;;;;22.07;47.42;100642.47;1732557;82;21021;-73
2021/08/23 07:04:13;;;;;;;6.37;2.87;;;;;;;22.15;45.86;100641.52;1732658;82;21033;-73
2021/08/23 07:06:39;;;;;;;9.45;3.02;;;;;;;22.23;46.07;100644.09;1732652;82;20986;-73
2021/08/23 07:09:07;;;;;;;4.62;2.77;;;;;;;22.34;45.94;100644.09;1732826;82;21377;-72
2021/08/23 07:11:34;;;;;;;5.35;2.87;;;;;;;22.44;45.46;100643.27;1733004;82;21437;-72
2021/08/23 07:14:02;;;;;;;7.33;2.77;;;;;;;22.51;44.77;100644.17;1732644;82;21025;-71
2021/08/23 07:16:28;;;;;;;6.25;2.72;;;;;;;22.61;44.39;100641.98;1732831;82;20986;-75
2021/08/23 07:18:55;;;;;;;6.10;2.60;;;;;;;22.67;44.31;100635.80;1732771;82;21460;-75
2021/08/23 07:21:22;;;;;;;6.15;2.40;;;;;;;22.75;44.06;100636.18;1732989;82;22807;-76
2021/08/23 07:23:50;;;;;;;8.78;2.30;;;;;;;22.85;43.23;100639.40;1732644;82;20942;-77
2021/08/23 07:26:16;;;;;;;5.53;2.12;;;;;;;22.94;43.42;100649.52;1732688;82;20941;-76
2021/08/23 07:28:43;;;;;;;5.80;2.58;;;;;;;23.04;42.58;100636.53;1732691;82;21468;-76
2021/08/23 07:31:09;;;;;;;7.72;2.20;;;;;;;23.15;42.75;100638.67;1732580;82;21425;-72
2021/08/23 07:33:35;;;;;;;5.08;2.40;;;;;;;23.19;41.62;100646.70;1733004;82;21466;-72
2021/08/23 07:36:03;;;;;;;3.10;1.80;;;;;;;23.25;41.61;100644.55;1732956;82;21535;-73
2021/08/23 07:38:31;;;;;;;3.17;1.62;;;;;;;23.33;41.26;100638.17;1732798;82;21571;-72
2021/08/23 07:41:00;;;;;;;5.00;1.72;;;;;;;23.43;40.73;100637.30;1711688;82;20969;-72
2021/08/23 07:43:26;;;;;;;5.78;1.82;;;;;;;23.51;40.55;100639.00;1732961;82;20998;-74
2021/08/23 07:45:53;;;;;;;3.05;1.70;;;;;;;23.54;40.66;100639.42;1732908;82;21781;-72
2021/08/23 07:48:19;;;;;;;3.87;1.77;;;;;;;23.61;39.59;100634.93;1736441;82;20985;-72
2021/08/23 07:50:46;;;;;;;2.15;1.32;;;;;;;23.64;38.92;100634.55;1739129;82;20981;-72
2021/08/23 07:53:12;;;;;;;2.40;1.40;;;;;;;23.73;38.86;100629.78;1739559;82;21004;-72
2021/08/23 07:55:39;;;;;;;3.40;1.50;;;;;;;23.83;37.52;100634.28;1718346;82;20969;-72
2021/08/23 07:58:06;;;;;;;2.52;1.57;;;;;;;23.89;38.06;100630.79;1738958;82;21837;-72
2021/08/23 08:00:33;;;;;;;3.35;1.50;;;;;;;23.95;37.84;100621.90;1739005;82;21014;-72
2021/08/23 08:02:59;;;;;;;7.53;1.55;;;;;;;24.04;38.35;100627.95;1733022;82;20965;-72
2021/08/23 08:05:26;;;;;;;1.92;1.42;;;;;;;24.10;37.85;100619.02;1729374;83;20958;-73
2021/08/23 08:07:52;;;;;;;3.12;1.67;;;;;;;24.21;38.59;100623.81;1729483;83;20998;-72
2021/08/23 08:10:19;;;;;;;2.50;1.50;;;;;;;24.32;37.93;100626.48;1729570;82;22591;-72
2021/08/23 08:12:46;;;;;;;4.70;2.35;;;;;;;24.36;37.37;100623.67;1729418;82;20909;-73
2021/08/23 08:15:13;;;;;;;5.03;1.67;;;;;;;24.39;36.76;100621.90;1729407;82;20962;-72
2021/08/23 08:17:39;;;;;;;2.22;1.37;;;;;;;24.44;36.61;100624.00;1729522;82;21282;-72
2021/08/23 08:20:08;;;;;;;2.58;1.47;;;;;;;24.51;36.88;100616.22;1729518;82;21435;-72
2021/08/23 08:22:34;;;;;;;14.07;1.85;;;;;;;24.62;36.40;100615.28;1729489;83;21830;-72
2021/08/23 08:25:01;;;;;;;6.53;2.12;;;;;;;24.71;36.51;100614.04;1729503;82;21055;-72
2021/08/23 08:27:28;;;;;;;3.15;1.95;;;;;;;24.84;36.51;100616.20;1729576;82;20982;-72
2021/08/23 08:29:54;;;;;;;3.05;1.75;;;;;;;24.99;36.91;100609.72;1729802;83;20982;-72
2021/08/23 08:32:21;;;;;;;3.98;1.90;;;;;;;25.11;36.68;100607.57;1729574;82;20942;-71
2021/08/23 08:34:47;;;;;;;6.17;2.47;;;;;;;25.22;36.78;100607.44;1729528;82;21791;-72
2021/08/23 08:37:14;;;;;;;8.28;2.20;;;;;;;25.31;35.55;100598.58;1729463;82;21002;-71
2021/08/23 08:39:41;;;;;;;5.28;2.00;;;;;;;25.35;35.58;100603.33;1729497;82;20945;-72
2021/08/23 08:42:08;;;;;;;5.53;2.50;;;;;;;25.32;34.83;100607.00;1729424;83;21100;-71
2021/08/23 08:44:35;;;;;;;6.47;2.37;;;;;;;25.32;36.00;100607.83;1729596;83;21013;-72
2021/08/23 08:47:01;;;;;;;6.08;2.20;;;;;;;25.45;36.21;100604.23;1729509;83;21826;-72
2021/08/23 08:49:29;;;;;;;3.02;1.80;;;;;;;25.55;35.58;100605.14;1729406;82;20926;-71
2021/08/23 08:51:56;;;;;;;4.65;1.80;;;;;;;25.63;35.81;100605.73;1708868;83;21049;-72
2021/08/23 08:54:23;;;;;;;3.47;1.87;;;;;;;25.73;35.80;100612.59;1729654;82;21104;-74
2021/08/23 08:56:50;;;;;;;2.95;2.10;;;;;;;25.80;35.55;100614.22;1729524;82;21020;-72
2021/08/23 08:59:17;;;;;;;7.65;1.92;;;;;;;25.87;34.79;100608.78;1729584;82;21813;-72
2021/08/23 09:01:44;;;;;;;8.18;3.85;;;;;;;25.88;35.51;100603.16;1729504;82;20989;-71
2021/08/23 09:04:11;;;;;;;13.18;4.87;;;;;;;26.02;38.04;100609.31;1738868;82;20953;-71
2021/08/23 09:06:40;;;;;;;14.00;4.47;;;;;;;26.14;38.64;100611.62;1713760;81;20973;-71
2021/08/23 09:09:11;;;;;;;13.15;4.33;;;;;;;26.24;38.80;100613.84;1738590;82;21008;-72
2021/08/23 09:11:42;;;;;;;14.63;5.00;;;;;;;26.35;39.05;100613.70;1738910;82;21823;-72
2021/08/23 09:14:10;;;;;;;13.75;5.47;;;;;;;26.50;38.31;100606.92;1709733;83;20949;-71
2021/08/23 09:16:39;;;;;;;9.43;4.55;;;;;;;26.62;37.98;100608.38;1710017;83;20965;-72
2021/08/23 09:19:07;;;;;;;12.30;4.97;;;;;;;26.69;36.48;100618.65;1709711;83;21528;-75
2021/08/23 09:21:38;;;;;;;8.93;4.58;;;;;;;26.53;36.50;100620.55;1709638;83;21067;-72
2021/08/23 09:24:20;;;;;;;11.05;5.00;;;;;;;26.39;37.44;100620.35;1709861;83;21805;-73
2021/08/23 09:26:47;;;;;;;12.33;4.47;;;;;;;26.38;37.54;100623.59;1709821;83;21318;-73
2021/08/23 09:29:13;;;;;;;6.62;3.40;;;;;;;26.50;37.68;100625.06;1715891;82;21437;-72
2021/08/23 09:31:40;;;;;;;9.20;3.72;;;;;;;26.64;38.76;100629.86;1732957;82;21404;-72
2021/08/23 09:34:10;;;;;;;9.13;4.67;;;;;;;26.76;38.65;100626.73;1732827;82;21120;-72
2021/08/23 09:36:37;;;;;;;11.22;4.12;;;;;;;26.80;36.69;100621.98;1732651;82;21896;-73
2021/08/23 09:39:12;;;;;;;7.85;3.60;;;;;;;26.64;37.43;100618.50;1732570;82;20985;-72
2021/08/23 09:41:41;;;;;;;5.20;3.40;;;;;;;26.56;37.40;100612.52;1732553;82;21063;-72
2021/08/23 09:44:14;;;;;;;7.40;3.58;;;;;;;26.48;37.68;100619.04;1732564;82;21476;-72
2021/08/23 09:46:44;;;;;;;8.78;4.97;;;;;;;26.41;38.31;100624.49;1732800;82;21006;-72
2021/08/23 09:49:12;;;;;;;8.43;4.95;;;;;;;26.25;38.26;100621.78;1739444;82;21812;-72
2021/08/23 09:51:42;;;;;;;8.40;4.33;;;;;;;26.16;38.45;100621.73;1739134;82;20957;-72
2021/08/23 09:54:13;;;;;;;8.53;3.98;;;;;;;26.10;38.78;100624.47;1739146;82;20937;-72
2021/08/23 09:56:53;;;;;;;4.83;3.15;;;;;;;26.15;39.77;100630.05;1739183;82;21315;-72
2021/08/23 09:59:24;;;;;;;12.58;3.37;;;;;;;26.29;39.24;100629.45;1739492;82;20992;-72
2021/08/23 10:01:55;;;;;;;5.17;3.10;;;;;;;26.48;39.94;100635.29;1739212;82;21842;-72
2021/08/23 10:04:21;;;;;;;4.85;3.00;;;;;;;26.75;39.17;100635.39;1734032;82;20950;-72
2021/08/23 10:06:49;;;;;;;11.48;2.90;;;;;;;26.90;38.17;100633.67;1732542;82;20953;-72
2021/08/23 10:09:23;;;;;;;5.78;2.70;;;;;;;26.95;38.69;100643.34;1733091;82;20990;-72
2021/08/23 10:11:52;;;;;;;6.97;2.58;;;;;;;27.12;38.58;100638.21;1732757;82;21552;-72
2021/08/23 10:14:19;;;;;;;6.55;2.70;;;;;;;27.41;37.34;100645.29;1732539;82;21829;-72
2021/08/23 10:16:46;;;;;;;4.67;2.40;;;;;;;27.61;35.81;100642.67;1732553;82;20989;-72
2021/08/23 10:19:13;;;;;;;5.08;2.12;;;;;;;27.76;35.85;100651.80;1732642;82;21029;-72
2021/08/23 10:21:47;;;;;;;6.80;2.70;;;;;;;27.81;34.57;100649.77;1732319;82;20945;-72
2021/08/23 10:24:24;;;;;;;10.93;4.20;;;;;;;27.76;34.18;100649.61;1712351;82;21471;-72
2021/08/23 10:26:50;;;;;;;17.27;5.75;;;;;;;27.52;33.06;100644.03;1731103;82;21839;-72
2021/08/23 10:29:17;;;;;;;10.65;3.72;;;;;;;27.24;33.46;100636.94;1732882;82;20938;-72
2021/08/23 10:31:45;;;;;;;8.25;3.55;;;;;;;27.01;34.23;100634.83;1732726;82;21053;-72
2021/08/23 10:34:20;;;;;;;9.60;3.52;;;;;;;26.93;34.60;100639.20;1732923;82;20989;-72
2021/08/23 10:36:49;;;;;;;13.78;3.00;;;;;;;26.89;34.92;100635.27;1731326;82;21025;-72
2021/08/23 10:39:22;;;;;;;8.78;2.95;;;;;;;26.85;35.14;100629.47;1732596;82;21798;-72
2021/08/23 10:41:50;;;;;;;7.58;2.87;;;;;;;26.81;35.33;100629.59;1732478;82;20994;-72
2021/08/23 10:44:32;;;;;;;8.55;2.47;;;;;;;26.75;35.25;100625.08;1732566;82;20958;-72
2021/08/23 10:47:14;;;;;;;12.70;3.05;;;;;;;26.65;35.56;100628.81;1729653;82;21408;-72
2021/08/23 10:49:46;;;;;;;6.60;2.85;;;;;;;26.55;35.36;100621.18;1739462;82;21425;-72
2021/08/23 10:52:16;;;;;;;11.53;3.17;;;;;;;26.43;35.65;100618.33;1739303;82;22496;-71
2021/08/23 10:54:47;;;;;;;8.45;2.50;;;;;;;26.43;35.65;100618.33;1733827;82;20994;-70
2021/08/23 10:57:16;;;;;;;7.53;2.90;;;;;;;26.44;36.53;100623.22;1732334;82;21467;-72
2021/08/23 10:59:46;;;;;;;5.90;2.60;;;;;;;26.50;36.50;100616.93;1732458;82;21041;-71
2021/08/23 11:02:29;;;;;;;10.32;3.40;;;;;;;26.59;37.02;100613.42;1732512;82;21005;-70
2021/08/23 11:05:09;;;;;;;5.33;2.50;;;;;;;26.82;35.77;100613.10;1732630;82;21866;-72
2021/08/23 11:07:39;;;;;;;7.47;2.40;;;;;;;27.15;35.67;100603.03;1732406;82;20986;-76
2021/08/23 11:10:12;;;;;;;3.25;1.98;;;;;;;27.44;34.50;100594.67;1732474;82;21014;-73
2021/08/23 11:12:47;;;;;;;;;;;;;;;27.56;34.62;100588.77;1733549;82;20955;-77
2021/08/23 11:15:27;;;;;;;7.15;2.20;;;;;;;27.81;33.72;100585.45;1732537;82;20147;-79
2021/08/23 11:17:59;;;;;;;6.20;2.42;;;;;;;27.88;32.72;100583.98;1732732;82;21726;-78
2021/08/23 11:20:29;;;;;;;4.67;2.35;;;;;;;27.89;32.32;100574.28;1732519;82;21006;-79
2021/08/23 11:23:06;;;;;;;3.33;1.87;;;;;;;27.94;31.44;100581.19;1732718;82;21005;-78